createdAt,value
2022-07-28T00:00:11.666Z,1.30
2022-07-28T00:01:11.658Z,1.60
2022-07-28T00:02:11.770Z,1.90
2022-07-28T00:03:11.692Z,1.60
2022-07-28T00:04:11.912Z,1.60
2022-07-28T00:05:11.599Z,1.70
2022-07-28T00:06:11.606Z,2.00
2022-07-28T00:07:11.618Z,1.70
2022-07-28T00:08:11.610Z,1.60
2022-07-28T00:09:11.570Z,2.00
2022-07-28T00:10:11.558Z,1.70
2022-07-28T00:11:11.578Z,1.80
2022-07-28T00:12:11.581Z,2.00
2022-07-28T00:13:11.674Z,1.60
2022-07-28T00:14:11.861Z,1.80
2022-07-28T00:15:11.527Z,1.60
2022-07-28T00:16:11.644Z,1.80
2022-07-28T00:17:11.706Z,2.00
2022-07-28T00:18:11.493Z,1.80
2022-07-28T00:19:11.526Z,1.80
2022-07-28T00:20:12.746Z,1.60
2022-07-28T00:21:11.506Z,1.80
2022-07-28T00:22:11.463Z,1.80
2022-07-28T00:23:11.527Z,1.50
2022-07-28T00:24:11.955Z,2.10
2022-07-28T00:25:11.457Z,1.60
2022-07-28T00:26:11.433Z,1.70
2022-07-28T00:27:12.055Z,1.60
2022-07-28T00:28:12.353Z,1.40
2022-07-28T00:29:11.428Z,1.50
2022-07-28T00:30:11.418Z,1.60
2022-07-28T00:31:13.771Z,1.70
2022-07-28T00:32:12.255Z,1.80
2022-07-28T00:33:11.418Z,1.50
2022-07-28T00:34:11.650Z,1.40
2022-07-28T00:35:11.395Z,1.30
2022-07-28T00:36:11.817Z,1.60
2022-07-28T00:37:13.390Z,1.50
2022-07-28T00:38:11.446Z,1.70
2022-07-28T00:39:11.348Z,1.50
2022-07-28T00:40:13.418Z,1.50
2022-07-28T00:41:12.348Z,1.40
2022-07-28T00:42:11.347Z,1.60
2022-07-28T00:43:11.381Z,1.90
2022-07-28T00:44:11.735Z,1.50
2022-07-28T00:45:11.391Z,1.60
2022-07-28T00:46:11.359Z,1.30
2022-07-28T00:47:11.275Z,1.40
2022-07-28T00:48:43.239Z,1.70
2022-07-28T00:49:43.191Z,1.60
2022-07-28T00:50:43.186Z,1.50
2022-07-28T00:51:44.177Z,1.40
2022-07-28T00:52:11.289Z,1.50
2022-07-28T00:53:11.246Z,1.60
2022-07-28T00:54:11.513Z,1.60
2022-07-28T00:55:11.217Z,1.40
2022-07-28T00:56:11.364Z,1.50
2022-07-28T00:57:11.240Z,1.60
2022-07-28T00:58:11.217Z,1.40
2022-07-28T00:59:11.222Z,1.60
2022-07-28T01:00:11.210Z,1.50
2022-07-28T01:01:11.168Z,1.60
2022-07-28T01:02:11.325Z,1.70
2022-07-28T01:03:12.182Z,1.70
2022-07-28T01:04:11.601Z,1.70
2022-07-28T01:05:11.164Z,1.50
2022-07-28T01:06:11.167Z,1.90
2022-07-28T01:07:11.132Z,1.50
2022-07-28T01:08:11.134Z,1.60
2022-07-28T01:09:11.107Z,1.50
2022-07-28T01:10:11.174Z,1.50
2022-07-28T01:11:11.138Z,1.80
2022-07-28T01:12:11.109Z,1.70
2022-07-28T01:13:11.096Z,1.60
2022-07-28T01:14:11.523Z,1.70
2022-07-28T01:15:11.096Z,1.40
2022-07-28T01:16:11.136Z,1.70
2022-07-28T01:17:11.059Z,1.50
2022-07-28T01:18:11.108Z,1.90
2022-07-28T01:19:11.039Z,1.50
2022-07-28T01:20:11.045Z,1.60
2022-07-28T01:21:11.040Z,1.80
2022-07-28T01:22:11.025Z,1.50
2022-07-28T01:23:11.042Z,1.80
2022-07-28T01:24:11.203Z,1.80
2022-07-28T01:25:10.998Z,1.60
2022-07-28T01:26:10.988Z,1.50
2022-07-28T01:27:11.178Z,1.60
2022-07-28T01:28:10.974Z,1.50
2022-07-28T01:29:10.957Z,1.70
2022-07-28T01:30:11.860Z,1.80
2022-07-28T01:31:10.990Z,1.70
2022-07-28T01:32:10.977Z,1.50
2022-07-28T01:33:11.035Z,1.80
2022-07-28T01:34:11.104Z,1.80
2022-07-28T01:35:11.051Z,1.70
2022-07-28T01:36:10.907Z,1.60
2022-07-28T01:37:10.944Z,2.00
2022-07-28T01:38:10.925Z,1.90
2022-07-28T01:39:10.915Z,1.80
2022-07-28T01:40:10.869Z,1.90
2022-07-28T01:41:10.853Z,1.60
2022-07-28T01:42:10.833Z,2.10
2022-07-28T01:43:13.314Z,1.70
2022-07-28T01:44:11.111Z,1.90
2022-07-28T02:02:48.877Z,2.00
2022-07-28T02:03:49.753Z,2.00
2022-07-28T02:04:49.083Z,1.60
2022-07-28T02:05:48.854Z,1.90
2022-07-28T02:06:48.848Z,1.70
2022-07-28T02:07:50.022Z,1.90
2022-07-28T02:08:49.958Z,1.90
2022-07-28T02:09:50.020Z,1.70
2022-07-28T02:10:49.957Z,1.90
2022-07-28T02:11:49.920Z,2.00
2022-07-28T02:12:50.490Z,2.40
2022-07-28T02:14:21.846Z,1.80
2022-07-28T02:14:49.918Z,1.90
2022-07-28T02:15:50.851Z,1.90
2022-07-28T02:16:50.426Z,1.70
2022-07-28T02:17:50.004Z,1.90
2022-07-28T02:18:49.916Z,2.00
2022-07-28T02:19:50.800Z,1.80
2022-07-28T02:20:49.891Z,1.60
2022-07-28T02:21:49.881Z,1.80
2022-07-28T02:22:51.212Z,1.70
2022-07-28T02:23:49.853Z,1.70
2022-07-28T02:24:50.839Z,1.70
2022-07-28T02:25:49.875Z,1.90
2022-07-28T02:26:49.841Z,1.80
2022-07-28T02:27:49.816Z,2.10
2022-07-28T02:28:49.829Z,1.80
2022-07-28T02:29:51.444Z,1.90
2022-07-28T02:30:50.888Z,1.90
2022-07-28T02:31:50.777Z,1.80
2022-07-28T02:32:49.762Z,1.80
2022-07-28T02:33:58.852Z,1.80
2022-07-28T02:34:50.773Z,1.90
2022-07-28T02:35:50.370Z,1.50
2022-07-28T02:36:49.735Z,1.90
2022-07-28T02:37:49.749Z,2.10
2022-07-28T02:38:49.725Z,2.10
2022-07-28T02:39:55.315Z,1.70
2022-07-28T02:40:50.729Z,2.10
2022-07-28T02:41:49.746Z,1.80
2022-07-28T02:42:49.699Z,2.00
2022-07-28T02:43:50.845Z,2.30
2022-07-28T02:44:49.684Z,1.90
2022-07-28T02:45:49.784Z,1.70
2022-07-28T02:46:49.671Z,1.80
2022-07-28T02:47:49.649Z,2.10
2022-07-28T02:48:49.733Z,1.80
2022-07-28T02:49:49.639Z,2.00
2022-07-28T02:50:49.660Z,1.80
2022-07-28T02:51:50.797Z,1.90
2022-07-28T02:52:49.654Z,2.00
2022-07-28T02:53:49.629Z,1.90
2022-07-28T02:54:49.595Z,1.80
2022-07-28T02:55:49.658Z,1.90
2022-07-28T02:56:53.263Z,1.90
2022-07-28T02:57:53.254Z,2.00
2022-07-28T02:58:51.565Z,2.00
2022-07-28T02:59:49.629Z,2.60
2022-07-28T03:00:49.546Z,1.70
2022-07-28T03:01:49.735Z,2.10
2022-07-28T03:02:49.619Z,2.20
2022-07-28T03:03:49.550Z,2.10
2022-07-28T03:04:49.604Z,2.10
2022-07-28T03:05:49.584Z,2.00
2022-07-28T03:06:49.515Z,2.10
2022-07-28T03:07:51.173Z,2.40
2022-07-28T03:08:49.484Z,2.00
2022-07-28T03:09:49.503Z,2.20
2022-07-28T03:10:49.466Z,1.90
2022-07-28T03:11:49.486Z,1.90
2022-07-28T03:12:49.528Z,1.90
2022-07-28T03:13:49.467Z,2.10
2022-07-28T03:14:49.474Z,1.90
2022-07-28T03:15:49.453Z,1.80
2022-07-28T03:16:55.106Z,1.80
2022-07-28T03:17:51.422Z,2.00
2022-07-28T03:18:49.445Z,1.80
2022-07-28T03:19:49.440Z,1.80
2022-07-28T03:20:49.390Z,2.10
2022-07-28T03:21:49.404Z,2.20
2022-07-28T03:22:49.371Z,2.00
2022-07-28T03:23:50.421Z,2.20
2022-07-28T03:24:49.397Z,2.10
2022-07-28T03:25:49.375Z,1.90
2022-07-28T03:26:49.343Z,2.00
2022-07-28T03:27:49.344Z,2.10
2022-07-28T03:28:49.352Z,2.10
2022-07-28T03:29:49.335Z,2.10
2022-07-28T03:30:49.369Z,2.30
2022-07-28T03:31:49.303Z,2.00
2022-07-28T03:32:49.313Z,2.00
2022-07-28T03:33:49.319Z,2.10
2022-07-28T03:34:49.296Z,2.00
2022-07-28T03:35:49.268Z,2.10
2022-07-28T03:36:49.277Z,1.90
2022-07-28T03:37:49.273Z,2.00
2022-07-28T03:38:49.356Z,2.20
2022-07-28T03:39:49.286Z,2.50
2022-07-28T03:40:49.874Z,2.20
2022-07-28T03:41:49.271Z,2.10
2022-07-28T03:42:49.218Z,2.00
2022-07-28T03:43:49.221Z,1.90
2022-07-28T03:44:50.253Z,2.20
2022-07-28T03:45:49.250Z,2.10
2022-07-28T04:01:38.756Z,2.40
2022-07-28T04:02:38.785Z,2.00
2022-07-28T04:03:43.604Z,2.30
2022-07-28T04:04:39.708Z,2.20
2022-07-28T04:05:38.711Z,2.30
2022-07-28T04:06:38.709Z,2.20
2022-07-28T04:07:39.852Z,2.20
2022-07-28T04:08:39.862Z,2.20
2022-07-28T04:09:39.809Z,2.80
2022-07-28T04:10:39.892Z,2.80
2022-07-28T04:11:39.841Z,2.50
2022-07-28T04:12:39.820Z,2.70
2022-07-28T04:13:39.777Z,2.70
2022-07-28T04:14:39.761Z,2.30
2022-07-28T04:15:39.759Z,2.50
2022-07-28T04:16:39.833Z,2.10
2022-07-28T04:17:39.740Z,2.20
2022-07-28T04:18:39.751Z,2.50
2022-07-28T04:19:39.720Z,2.30
2022-07-28T04:20:39.719Z,2.50
2022-07-28T04:21:39.695Z,2.20
2022-07-28T04:22:39.834Z,2.10
2022-07-28T04:23:39.780Z,2.30
2022-07-28T04:24:39.747Z,2.50
2022-07-28T04:25:40.139Z,2.20
2022-07-28T04:26:39.659Z,2.30
2022-07-28T04:27:39.684Z,2.50
2022-07-28T04:28:39.668Z,2.00
2022-07-28T04:29:39.630Z,2.60
2022-07-28T04:30:43.735Z,2.30
2022-07-28T04:31:40.622Z,2.40
2022-07-28T04:32:39.616Z,2.30
2022-07-28T04:33:39.732Z,2.10
2022-07-28T04:34:39.622Z,2.10
2022-07-28T04:35:39.605Z,2.40
2022-07-28T04:36:39.582Z,2.60
2022-07-28T04:37:39.615Z,2.40
2022-07-28T04:38:39.561Z,2.30
2022-07-28T04:39:39.562Z,2.30
2022-07-28T04:40:39.563Z,2.30
2022-07-28T04:41:40.361Z,2.30
2022-07-28T04:42:39.569Z,2.30
2022-07-28T04:43:39.514Z,2.50
2022-07-28T04:44:39.523Z,2.60
2022-07-28T04:45:39.587Z,2.10
2022-07-28T04:46:40.619Z,2.30
2022-07-28T04:47:39.478Z,4.50
2022-07-28T04:48:39.628Z,3.80
2022-07-28T04:49:39.469Z,3.90
2022-07-28T04:50:40.364Z,2.40
2022-07-28T04:51:40.359Z,1.90
2022-07-28T04:52:39.450Z,2.10
2022-07-28T04:53:39.439Z,2.10
2022-07-28T04:54:39.431Z,2.00
2022-07-28T04:55:39.443Z,1.90
2022-07-28T04:56:39.450Z,2.00
2022-07-28T04:57:39.409Z,1.80
2022-07-28T04:58:39.410Z,2.00
2022-07-28T04:59:39.394Z,2.00
2022-07-28T05:00:39.554Z,1.80
2022-07-28T05:01:39.491Z,2.00
2022-07-28T05:02:39.367Z,1.90
2022-07-28T05:03:39.874Z,1.70
2022-07-28T05:04:39.901Z,1.70
2022-07-28T05:05:39.352Z,1.60
2022-07-28T05:06:39.325Z,1.70
2022-07-28T05:07:39.375Z,1.70
2022-07-28T05:08:40.368Z,1.70
2022-07-28T05:09:39.327Z,1.60
2022-07-28T05:10:39.355Z,1.70
2022-07-28T05:11:39.296Z,1.70
2022-07-28T05:12:39.356Z,1.90
2022-07-28T05:13:39.312Z,1.70
2022-07-28T05:14:39.265Z,1.90
2022-07-28T05:15:39.289Z,1.80
2022-07-28T05:16:39.359Z,1.70
2022-07-28T05:17:39.320Z,1.60
2022-07-28T05:18:39.295Z,1.80
2022-07-28T05:19:39.260Z,2.20
2022-07-28T05:20:39.293Z,2.20
2022-07-28T05:21:39.230Z,1.90
2022-07-28T05:22:39.221Z,1.70
2022-07-28T05:23:41.323Z,2.00
2022-07-28T05:24:40.216Z,1.70
2022-07-28T05:25:39.272Z,1.80
2022-07-28T05:26:39.234Z,1.80
2022-07-28T05:27:39.176Z,1.90
2022-07-28T05:28:39.179Z,1.80
2022-07-28T05:29:46.665Z,1.60
2022-07-28T05:30:40.194Z,1.90
2022-07-28T05:31:39.318Z,1.90
2022-07-28T05:32:39.156Z,2.10
2022-07-28T05:33:39.158Z,1.80
2022-07-28T05:34:40.024Z,1.80
2022-07-28T05:35:39.135Z,1.70
2022-07-28T05:36:39.161Z,1.90
2022-07-28T05:37:39.143Z,2.10
2022-07-28T05:38:39.195Z,1.90
2022-07-28T05:39:39.137Z,1.70
2022-07-28T05:40:39.110Z,2.00
2022-07-28T05:41:39.110Z,1.80
2022-07-28T05:42:39.066Z,1.60
2022-07-28T05:43:39.272Z,1.70
2022-07-28T05:44:39.047Z,1.50
2022-07-28T05:45:39.076Z,1.70
2022-07-28T05:46:39.055Z,1.60
2022-07-28T05:47:39.041Z,1.70
2022-07-28T05:48:39.071Z,2.20
2022-07-28T05:49:39.108Z,1.60
2022-07-28T05:50:39.039Z,1.70
2022-07-28T05:51:41.830Z,1.80
2022-07-28T05:52:39.991Z,1.90
2022-07-28T05:53:38.975Z,1.50
2022-07-28T05:54:38.965Z,1.50
2022-07-28T05:56:00.677Z,1.60
2022-07-28T05:56:39.968Z,1.60
2022-07-28T05:57:38.941Z,1.50
2022-07-28T05:58:39.009Z,1.70
2022-07-28T05:59:38.999Z,1.50
2022-07-28T06:00:38.970Z,1.90
2022-07-28T06:01:38.943Z,1.50
2022-07-28T06:02:39.011Z,1.70
2022-07-28T06:03:42.282Z,1.80
2022-07-28T06:04:39.949Z,1.70
2022-07-28T06:05:59.208Z,1.40
2022-07-28T06:06:39.897Z,1.70
2022-07-28T06:07:43.462Z,1.60
2022-07-28T06:08:39.877Z,1.80
2022-07-28T06:09:43.384Z,1.90
2022-07-28T06:10:40.837Z,1.60
2022-07-28T06:11:38.842Z,1.50
2022-07-28T06:12:38.832Z,1.50
2022-07-28T06:13:38.857Z,1.60
2022-07-28T06:14:38.863Z,1.70
2022-07-28T06:15:38.827Z,1.80
2022-07-28T06:16:38.892Z,1.70
2022-07-28T06:17:40.387Z,1.40
2022-07-28T06:18:38.787Z,1.80
2022-07-28T06:19:38.795Z,1.40
2022-07-28T06:20:38.774Z,1.80
2022-07-28T06:21:38.770Z,1.60
2022-07-28T06:22:39.782Z,1.60
2022-07-28T06:23:38.782Z,1.60
2022-07-28T06:24:39.405Z,1.80
2022-07-28T06:25:38.799Z,1.50
2022-07-28T06:26:44.016Z,1.50
2022-07-28T06:27:40.724Z,1.60
2022-07-28T06:28:39.403Z,1.70
2022-07-28T06:29:38.794Z,1.50
2022-07-28T06:30:38.748Z,1.40
2022-07-28T06:31:38.767Z,1.50
2022-07-28T06:32:38.781Z,1.70
2022-07-28T06:33:38.697Z,1.70
2022-07-28T06:34:38.683Z,1.40
2022-07-28T06:35:47.707Z,1.60
2022-07-28T06:36:39.635Z,1.50
2022-07-28T06:37:38.705Z,1.50
2022-07-28T06:38:38.711Z,1.70
2022-07-28T06:39:38.648Z,1.50
2022-07-28T06:40:38.628Z,1.40
2022-07-28T06:41:38.613Z,1.50
2022-07-28T06:42:38.667Z,1.40
2022-07-28T06:43:39.380Z,1.50
2022-07-28T06:44:57.863Z,1.50
2022-07-28T06:45:40.589Z,1.50
2022-07-28T06:46:39.598Z,1.50
2022-07-28T06:47:38.600Z,1.40
2022-07-28T06:48:39.780Z,1.50
2022-07-28T06:49:38.561Z,1.70
2022-07-28T06:50:39.439Z,1.50
2022-07-28T06:51:38.652Z,1.60
2022-07-28T06:52:38.559Z,1.80
2022-07-28T06:53:38.570Z,1.40
2022-07-28T06:54:38.537Z,1.80
2022-07-28T06:55:39.535Z,1.70
2022-07-28T06:56:38.560Z,1.60
2022-07-28T06:57:38.559Z,1.40
2022-07-28T06:58:38.542Z,1.50
2022-07-28T06:59:38.489Z,1.50
2022-07-28T07:00:38.637Z,1.60
2022-07-28T07:01:38.481Z,1.60
2022-07-28T07:02:38.492Z,1.50
2022-07-28T07:03:38.484Z,1.50
2022-07-28T07:04:40.045Z,1.70
2022-07-28T07:05:38.459Z,1.50
2022-07-28T07:06:38.500Z,1.50
2022-07-28T07:07:42.769Z,1.60
2022-07-28T07:08:40.421Z,1.60
2022-07-28T07:09:38.910Z,1.60
2022-07-28T07:10:38.422Z,1.40
2022-07-28T07:11:38.427Z,1.70
2022-07-28T07:12:38.412Z,1.40
2022-07-28T07:13:38.408Z,1.40
2022-07-28T07:14:38.375Z,1.50
2022-07-28T07:15:38.398Z,1.60
2022-07-28T07:16:38.986Z,1.50
2022-07-28T07:17:38.495Z,1.60
2022-07-28T07:18:38.339Z,1.50
2022-07-28T07:19:38.327Z,1.40
2022-07-28T07:20:39.098Z,1.70
2022-07-28T07:21:38.369Z,1.30
2022-07-28T07:22:38.303Z,1.70
2022-07-28T07:23:38.316Z,1.30
2022-07-28T07:24:39.045Z,1.50
2022-07-28T07:25:38.348Z,1.60
2022-07-28T07:26:38.295Z,1.70
2022-07-28T07:27:38.379Z,1.40
2022-07-28T07:28:38.288Z,1.70
2022-07-28T07:29:38.254Z,1.60
2022-07-28T07:30:38.240Z,1.40
2022-07-28T07:31:38.287Z,1.60
2022-07-28T07:32:38.246Z,1.90
2022-07-28T07:33:38.271Z,1.50
2022-07-28T07:34:38.235Z,1.80
2022-07-28T07:35:38.375Z,1.60
2022-07-28T07:36:38.203Z,1.80
2022-07-28T07:37:39.652Z,1.80
2022-07-28T07:38:38.246Z,1.30
2022-07-28T07:39:39.174Z,1.50
2022-07-28T07:40:38.181Z,1.40
2022-07-28T07:41:38.223Z,1.40
2022-07-28T07:42:38.147Z,1.30
2022-07-28T07:43:38.180Z,1.80
2022-07-28T07:44:38.136Z,1.50
2022-07-28T07:45:38.149Z,1.60
2022-07-28T07:46:38.195Z,1.30
2022-07-28T07:47:38.136Z,1.80
2022-07-28T07:48:38.150Z,1.60
2022-07-28T07:49:45.354Z,1.50
2022-07-28T07:50:39.092Z,1.60
2022-07-28T07:51:38.103Z,1.60
2022-07-28T07:52:38.101Z,1.40
2022-07-28T07:53:38.066Z,1.60
2022-07-28T07:54:38.086Z,1.80
2022-07-28T07:55:38.061Z,1.40
2022-07-28T07:56:38.931Z,1.70
2022-07-28T07:57:38.059Z,1.50
2022-07-28T07:58:38.056Z,1.60
2022-07-28T07:59:38.983Z,2.40
2022-07-28T08:00:38.035Z,1.70
2022-07-28T08:01:40.527Z,1.70
2022-07-28T08:02:38.023Z,1.60
2022-07-28T08:03:38.566Z,1.50
2022-07-28T08:04:38.341Z,1.60
2022-07-28T08:05:38.027Z,1.50
2022-07-28T08:06:38.083Z,1.60
2022-07-28T08:07:38.942Z,1.50
2022-07-28T08:08:43.813Z,1.60
2022-07-28T08:09:40.935Z,1.50
2022-07-28T08:10:37.955Z,1.50
2022-07-28T08:11:37.946Z,1.50
2022-07-28T08:12:37.953Z,1.70
2022-07-28T08:13:38.435Z,1.80
2022-07-28T08:15:09.841Z,1.50
2022-07-28T08:15:37.930Z,1.70
2022-07-28T08:16:37.947Z,1.80
2022-07-28T08:17:37.885Z,1.40
2022-07-28T08:18:37.932Z,1.50
2022-07-28T08:19:37.896Z,1.30
2022-07-28T08:20:38.102Z,1.40
2022-07-28T08:21:37.884Z,1.50
2022-07-28T08:22:37.871Z,1.70
2022-07-28T08:23:37.832Z,1.60
2022-07-28T08:24:37.825Z,1.50
2022-07-28T08:25:37.836Z,1.60
2022-07-28T08:26:37.843Z,1.50
2022-07-28T08:27:37.835Z,1.50
2022-07-28T08:28:37.878Z,1.60
2022-07-28T08:29:37.790Z,1.60
2022-07-28T08:30:39.574Z,1.60
2022-07-28T08:31:37.928Z,1.50
2022-07-28T08:32:37.786Z,1.60
2022-07-28T08:33:53.890Z,1.40
2022-07-28T08:34:39.519Z,1.40
2022-07-28T08:35:37.801Z,1.60
2022-07-28T08:36:37.749Z,1.50
2022-07-28T08:37:37.718Z,1.30
2022-07-28T08:38:38.117Z,1.80
2022-07-28T08:39:37.723Z,1.60
2022-07-28T08:40:37.913Z,1.60
2022-07-28T08:41:37.709Z,1.20
2022-07-28T08:42:37.687Z,1.60
2022-07-28T08:43:37.709Z,1.60
2022-07-28T08:44:37.670Z,2.00
2022-07-28T08:45:37.680Z,1.30
2022-07-28T08:46:37.764Z,1.40
2022-07-28T08:47:58.615Z,1.30
2022-07-28T08:48:39.757Z,1.50
2022-07-28T08:49:39.329Z,1.40
2022-07-28T08:50:37.825Z,1.40
2022-07-28T08:51:37.724Z,1.70
2022-07-28T08:52:37.653Z,1.50
2022-07-28T08:53:37.618Z,1.40
2022-07-28T08:54:37.604Z,1.80
2022-07-28T08:55:37.626Z,1.60
2022-07-28T08:56:37.587Z,1.70
2022-07-28T08:57:37.580Z,1.40
2022-07-28T08:58:37.654Z,1.90
2022-07-28T08:59:38.551Z,1.40
2022-07-28T09:00:37.576Z,1.80
2022-07-28T09:01:39.198Z,1.50
2022-07-28T09:02:37.647Z,1.50
2022-07-28T09:03:37.672Z,1.50
2022-07-28T09:04:37.553Z,1.60
2022-07-28T09:05:37.629Z,1.50
2022-07-28T09:06:37.591Z,1.80
2022-07-28T09:07:37.533Z,1.60
2022-07-28T09:08:37.551Z,1.70
2022-07-28T09:09:37.510Z,1.40
2022-07-28T09:10:37.530Z,1.60
2022-07-28T09:11:37.501Z,1.60
2022-07-28T09:12:37.542Z,1.60
2022-07-28T09:13:38.312Z,1.50
2022-07-28T09:14:37.476Z,1.30
2022-07-28T09:15:37.588Z,1.70
2022-07-28T09:16:37.520Z,1.60
2022-07-28T09:17:37.444Z,1.60
2022-07-28T09:18:37.515Z,1.50
2022-07-28T09:19:37.433Z,1.60
2022-07-28T09:20:37.426Z,1.90
2022-07-28T09:21:37.448Z,1.50
2022-07-28T09:22:37.431Z,1.50
2022-07-28T09:23:43.868Z,1.80
2022-07-28T09:24:38.421Z,1.60
2022-07-28T09:25:37.402Z,3.70
2022-07-28T09:26:37.408Z,1.70
2022-07-28T09:27:37.370Z,1.60
2022-07-28T09:28:37.409Z,1.80
2022-07-28T09:29:37.394Z,1.50
2022-07-28T09:30:37.428Z,1.60
2022-07-28T09:31:38.384Z,1.70
2022-07-28T09:32:37.362Z,1.60
2022-07-28T09:33:41.145Z,1.60
2022-07-28T09:34:37.339Z,1.60
2022-07-28T09:35:37.319Z,1.60
2022-07-28T09:36:37.307Z,1.70
2022-07-28T09:37:37.293Z,1.60
2022-07-28T09:38:37.285Z,1.50
2022-07-28T09:39:37.295Z,1.60
2022-07-28T09:40:37.304Z,1.40
2022-07-28T09:41:37.300Z,1.60
2022-07-28T09:42:37.277Z,1.60
2022-07-28T09:43:37.252Z,1.30
2022-07-28T09:44:37.269Z,1.80
2022-07-28T09:45:37.244Z,1.70
2022-07-28T09:46:37.489Z,1.60
2022-07-28T09:47:37.398Z,1.40
2022-07-28T09:48:37.431Z,1.80
2022-07-28T09:49:37.277Z,1.80
2022-07-28T09:50:37.218Z,1.60
2022-07-28T09:51:37.202Z,1.50
2022-07-28T09:52:37.208Z,1.60
2022-07-28T09:53:37.183Z,1.60
2022-07-28T09:54:40.750Z,1.50
2022-07-28T09:55:38.179Z,1.30
2022-07-28T09:56:37.171Z,1.40
2022-07-28T09:57:37.159Z,1.40
2022-07-28T09:58:37.164Z,1.40
2022-07-28T09:59:37.144Z,1.30
2022-07-28T10:00:37.139Z,1.70
2022-07-28T10:01:37.492Z,1.40
2022-07-28T10:02:37.178Z,1.60
2022-07-28T10:03:37.101Z,1.60
2022-07-28T10:04:38.071Z,1.30
2022-07-28T10:05:37.084Z,1.60
2022-07-28T10:06:37.137Z,1.30
2022-07-28T10:07:37.083Z,1.60
2022-07-28T10:08:37.102Z,1.50
2022-07-28T10:09:37.084Z,1.50
2022-07-28T10:10:37.046Z,1.70
2022-07-28T10:11:41.503Z,1.60
2022-07-28T10:12:38.051Z,1.40
2022-07-28T10:13:37.043Z,1.60
2022-07-28T10:14:37.038Z,1.50
2022-07-28T10:15:37.041Z,1.30
2022-07-28T10:16:37.102Z,1.60
2022-07-28T10:17:37.018Z,1.30
2022-07-28T10:18:37.000Z,1.50
2022-07-28T10:19:37.007Z,1.50
2022-07-28T10:20:37.007Z,1.30
2022-07-28T10:21:37.003Z,1.60
2022-07-28T10:22:42.472Z,1.60
2022-07-28T10:23:38.943Z,1.50
2022-07-28T10:24:36.986Z,1.50
2022-07-28T10:25:36.984Z,1.50
2022-07-28T10:26:36.933Z,1.40
2022-07-28T10:27:36.930Z,1.30
2022-07-28T10:28:41.938Z,1.50
2022-07-28T10:29:38.914Z,1.70
2022-07-28T10:30:37.029Z,1.40
2022-07-28T10:31:36.926Z,1.50
2022-07-28T10:32:36.921Z,1.40
2022-07-28T10:33:36.911Z,1.50
2022-07-28T10:34:36.875Z,1.40
2022-07-28T10:35:54.450Z,1.40
2022-07-28T10:36:37.883Z,1.50
2022-07-28T10:37:36.883Z,1.60
2022-07-28T10:38:36.995Z,1.60
2022-07-28T10:39:37.509Z,1.60
2022-07-28T10:40:37.636Z,1.50
2022-07-28T10:41:36.838Z,1.50
2022-07-28T10:42:36.859Z,1.40
2022-07-28T10:43:36.901Z,1.60
2022-07-28T10:44:37.830Z,1.40
2022-07-28T10:46:03.344Z,1.60
2022-07-28T10:46:39.546Z,1.80
2022-07-28T10:47:36.812Z,1.50
2022-07-28T10:48:36.856Z,1.30
2022-07-28T10:49:36.931Z,1.40
2022-07-28T10:50:38.641Z,1.70
2022-07-28T10:51:44.619Z,1.40
2022-07-28T10:52:48.912Z,1.60
2022-07-28T10:53:39.540Z,1.40
2022-07-28T10:54:36.791Z,1.30
2022-07-28T10:55:36.754Z,1.60
2022-07-28T10:56:37.643Z,1.70
2022-07-28T10:57:36.727Z,1.40
2022-07-28T10:58:36.730Z,1.60
2022-07-28T10:59:36.702Z,1.70
2022-07-28T11:00:53.054Z,1.70
2022-07-28T11:01:52.310Z,1.60
2022-07-28T11:02:38.795Z,1.40
2022-07-28T11:03:37.648Z,1.60
2022-07-28T11:04:37.650Z,1.60
2022-07-28T11:05:37.033Z,1.80
2022-07-28T11:06:39.803Z,1.40
2022-07-28T11:07:37.658Z,1.60
2022-07-28T11:08:36.635Z,1.40
2022-07-28T11:09:36.655Z,1.40
2022-07-28T11:10:37.691Z,1.40
2022-07-28T11:11:36.623Z,1.50
2022-07-28T11:12:36.635Z,1.30
2022-07-28T11:13:40.799Z,1.50
2022-07-28T11:14:37.122Z,1.40
2022-07-28T11:15:36.613Z,1.60
2022-07-28T11:16:37.644Z,1.50
2022-07-28T11:17:36.605Z,1.40
2022-07-28T11:18:36.592Z,1.40
2022-07-28T11:19:51.543Z,1.50
2022-07-28T11:20:37.560Z,1.40
2022-07-28T11:21:39.615Z,1.40
2022-07-28T11:22:36.553Z,1.50
2022-07-28T11:23:36.538Z,1.40
2022-07-28T11:24:36.527Z,1.50
2022-07-28T11:25:36.529Z,1.70
2022-07-28T11:26:36.521Z,1.50
2022-07-28T11:27:36.841Z,1.60
2022-07-28T11:28:36.504Z,1.10
2022-07-28T11:29:36.525Z,1.60
2022-07-28T11:30:37.183Z,1.60
2022-07-28T11:31:36.494Z,1.40
2022-07-28T11:32:44.129Z,1.70
2022-07-28T11:33:38.503Z,1.50
2022-07-28T11:34:37.500Z,1.40
2022-07-28T11:35:36.457Z,1.30
2022-07-28T11:36:36.543Z,1.30
2022-07-28T11:37:36.442Z,1.40
2022-07-28T11:38:36.421Z,1.30
2022-07-28T11:39:43.466Z,1.40
2022-07-28T11:40:39.456Z,1.60
2022-07-28T11:41:36.464Z,1.50
2022-07-28T11:42:37.107Z,1.50
2022-07-28T11:43:38.989Z,1.50
2022-07-28T11:44:37.383Z,1.70
2022-07-28T11:45:39.322Z,1.30
2022-07-28T11:46:37.598Z,1.40
2022-07-28T11:47:36.361Z,1.60
2022-07-28T11:48:36.411Z,1.50
2022-07-28T11:49:36.338Z,1.50
2022-07-28T11:50:36.330Z,1.50
2022-07-28T11:51:51.102Z,1.60
2022-07-28T11:52:38.323Z,1.30
2022-07-28T11:53:36.313Z,1.70
2022-07-28T11:54:36.323Z,1.60
2022-07-28T11:55:55.702Z,1.50
2022-07-28T11:56:37.330Z,1.60
2022-07-28T11:57:36.367Z,1.60
2022-07-28T11:58:36.303Z,1.60
2022-07-28T11:59:36.627Z,1.50
2022-07-28T12:00:36.290Z,1.40
2022-07-28T12:01:38.320Z,1.60
2022-07-28T12:02:36.423Z,1.20
2022-07-28T12:03:49.179Z,1.50
2022-07-28T12:04:37.299Z,1.60
2022-07-28T12:05:42.069Z,1.60
2022-07-28T12:06:37.381Z,1.20
2022-07-28T12:07:36.219Z,1.80
2022-07-28T12:08:36.209Z,1.50
2022-07-28T12:09:42.355Z,1.60
2022-07-28T12:10:55.387Z,1.70
2022-07-28T12:11:38.332Z,1.20
2022-07-28T12:12:36.212Z,1.30
2022-07-28T12:13:36.174Z,1.50
2022-07-28T12:14:39.069Z,1.40
2022-07-28T12:15:37.160Z,1.60
2022-07-28T12:16:36.221Z,1.60
2022-07-28T12:17:36.145Z,1.30
2022-07-28T12:18:36.165Z,1.50
2022-07-28T12:19:36.142Z,1.60
2022-07-28T12:20:36.134Z,1.30
2022-07-28T12:21:36.112Z,1.50
2022-07-28T12:22:36.171Z,1.40
2022-07-28T12:23:44.139Z,1.70
2022-07-28T12:24:46.111Z,1.40
2022-07-28T12:25:37.079Z,1.60
2022-07-28T12:26:40.590Z,1.10
2022-07-28T12:27:37.596Z,1.40
2022-07-28T12:28:36.077Z,1.60
2022-07-28T12:29:36.975Z,1.40
2022-07-28T12:30:36.057Z,1.30
2022-07-28T12:31:36.126Z,1.40
2022-07-28T12:32:36.041Z,1.30
2022-07-28T12:33:36.022Z,1.70
2022-07-28T12:34:36.045Z,1.60
2022-07-28T12:35:36.028Z,1.50
2022-07-28T12:36:36.975Z,1.40
2022-07-28T12:37:36.018Z,1.20
2022-07-28T12:38:35.991Z,1.50
2022-07-28T12:39:36.007Z,1.30
2022-07-28T12:40:36.841Z,1.60
2022-07-28T12:41:35.987Z,1.60
2022-07-28T12:42:35.951Z,1.30
2022-07-28T12:43:35.949Z,1.20
2022-07-28T12:44:35.974Z,1.40
2022-07-28T12:45:36.027Z,1.30
2022-07-28T12:46:35.944Z,1.50
2022-07-28T12:47:35.907Z,1.60
2022-07-28T12:48:35.942Z,2.30
2022-07-28T12:49:35.913Z,1.50
2022-07-28T12:50:35.910Z,1.70
2022-07-28T12:51:35.907Z,1.80
2022-07-28T12:52:35.934Z,1.40
2022-07-28T12:53:36.020Z,1.20
2022-07-28T12:54:35.934Z,1.40
2022-07-28T12:55:35.874Z,1.30
2022-07-28T12:56:35.867Z,1.20
2022-07-28T12:57:35.877Z,1.30
2022-07-28T12:58:36.213Z,1.30
2022-07-28T12:59:35.927Z,1.60
2022-07-28T13:00:35.957Z,1.50
2022-07-28T13:01:35.872Z,1.30
2022-07-28T13:02:35.925Z,1.40
2022-07-28T13:03:35.824Z,1.50
2022-07-28T13:04:35.869Z,1.30
2022-07-28T13:05:35.800Z,1.40
2022-07-28T13:06:35.812Z,1.50
2022-07-28T13:07:36.207Z,1.40
2022-07-28T13:08:35.964Z,1.50
2022-07-28T13:09:36.766Z,1.40
2022-07-28T13:10:35.845Z,1.40
2022-07-28T13:11:45.953Z,1.60
2022-07-28T13:12:37.728Z,1.40
2022-07-28T13:13:35.751Z,1.30
2022-07-28T13:14:35.812Z,1.50
2022-07-28T13:15:36.016Z,1.40
2022-07-28T13:16:35.840Z,1.30
2022-07-28T13:17:35.766Z,1.30
2022-07-28T13:18:35.764Z,1.30
2022-07-28T13:19:35.688Z,1.20
2022-07-28T13:20:36.724Z,1.20
2022-07-28T13:21:35.671Z,1.20
2022-07-28T13:22:35.697Z,1.50
2022-07-28T13:23:35.674Z,1.20
2022-07-28T13:24:35.642Z,1.60
2022-07-28T13:25:35.642Z,1.40
2022-07-28T13:26:35.656Z,1.50
2022-07-28T13:27:35.706Z,1.30
2022-07-28T13:28:36.147Z,1.20
2022-07-28T13:29:35.647Z,1.60
2022-07-28T13:30:36.687Z,1.40
2022-07-28T13:31:35.706Z,1.40
2022-07-28T13:32:35.669Z,1.40
2022-07-28T13:33:35.589Z,1.40
2022-07-28T13:34:35.603Z,1.70
2022-07-28T13:35:35.570Z,1.10
2022-07-28T13:36:35.595Z,1.40
2022-07-28T13:37:35.559Z,1.30
2022-07-28T13:38:35.592Z,1.50
2022-07-28T13:39:35.690Z,1.40
2022-07-28T13:40:36.108Z,1.40
2022-07-28T13:41:56.597Z,1.20
2022-07-28T13:42:37.193Z,1.80
2022-07-28T13:43:35.926Z,1.40
2022-07-28T13:44:35.512Z,1.40
2022-07-28T13:45:35.543Z,1.30
2022-07-28T13:46:36.181Z,1.30
2022-07-28T13:47:38.856Z,1.40
2022-07-28T13:48:36.271Z,1.30
2022-07-28T13:49:35.549Z,1.50
2022-07-28T13:50:36.015Z,1.30